createdAt,value
2023-03-30T00:01:03.748Z,15.26
2023-03-30T00:03:33.275Z,15.24
2023-03-30T00:06:05.328Z,15.27
2023-03-30T00:08:33.321Z,15.28
2023-03-30T00:11:02.209Z,15.30
2023-03-30T00:13:30.165Z,15.29
2023-03-30T00:15:57.100Z,15.30
2023-03-30T00:18:24.818Z,15.29
2023-03-30T00:20:53.194Z,15.24
2023-03-30T00:23:20.572Z,15.20
2023-03-30T00:25:47.472Z,15.19
2023-03-30T00:28:14.388Z,15.09
2023-03-30T00:30:41.734Z,15.06
2023-03-30T00:33:08.857Z,15.04
2023-03-30T00:35:36.264Z,15.05
2023-03-30T00:38:05.754Z,15.03
2023-03-30T00:40:34.757Z,15.07
2023-03-30T00:43:04.402Z,15.12
2023-03-30T00:45:35.711Z,15.14
2023-03-30T00:48:07.888Z,15.17
2023-03-30T00:50:41.806Z,15.16
2023-03-30T00:53:16.251Z,15.16
2023-03-30T00:55:47.329Z,15.20
2023-03-30T00:58:17.817Z,15.19
2023-03-30T01:00:47.226Z,15.16
2023-03-30T01:03:22.701Z,15.10
2023-03-30T01:05:52.016Z,15.07
2023-03-30T01:08:23.907Z,15.06
2023-03-30T01:10:52.563Z,15.04
2023-03-30T01:13:20.668Z,15.01
2023-03-30T01:16:08.887Z,15.04
2023-03-30T01:18:54.701Z,15.04
2023-03-30T01:22:01.759Z,14.98
2023-03-30T01:25:20.879Z,14.95
2023-03-30T01:28:18.490Z,14.86
2023-03-30T01:31:14.860Z,14.85
2023-03-30T01:34:27.953Z,14.74
2023-03-30T01:37:32.345Z,14.68
2023-03-30T01:40:09.961Z,14.67
2023-03-30T01:42:47.565Z,14.68
2023-03-30T01:45:27.558Z,14.70
2023-03-30T01:48:02.390Z,14.73
2023-03-30T01:50:37.066Z,14.78
2023-03-30T01:53:14.935Z,14.77
2023-03-30T01:55:52.814Z,14.80
2023-03-30T01:58:27.797Z,14.80
2023-03-30T02:00:57.519Z,14.86
2023-03-30T02:03:28.878Z,14.88
2023-03-30T02:06:03.948Z,14.88
2023-03-30T02:08:34.544Z,14.88
2023-03-30T02:11:03.557Z,14.88
2023-03-30T02:13:32.926Z,14.91
2023-03-30T02:16:07.185Z,14.95
2023-03-30T02:18:35.356Z,14.98
2023-03-30T02:21:03.493Z,14.99
2023-03-30T02:23:37.086Z,15.02
2023-03-30T02:26:07.956Z,15.03
2023-03-30T02:28:34.896Z,15.02
2023-03-30T02:31:04.454Z,15.01
2023-03-30T02:33:48.410Z,15.00
2023-03-30T02:36:39.468Z,14.98
2023-03-30T02:39:24.180Z,14.96
2023-03-30T02:42:28.088Z,14.93
2023-03-30T02:45:19.592Z,14.94
2023-03-30T02:48:03.372Z,14.95
2023-03-30T02:50:44.178Z,14.96
2023-03-30T02:53:24.706Z,14.92
2023-03-30T02:56:07.925Z,14.90
2023-03-30T02:58:45.389Z,14.91
2023-03-30T03:01:19.208Z,14.91
2023-03-30T03:03:49.362Z,14.89
2023-03-30T03:06:18.345Z,14.91
2023-03-30T03:08:48.111Z,14.87
2023-03-30T03:11:15.656Z,14.85
2023-03-30T03:13:44.560Z,14.80
2023-03-30T03:16:13.994Z,14.76
2023-03-30T03:18:44.577Z,14.76
2023-03-30T03:21:13.861Z,14.77
2023-03-30T03:23:41.140Z,14.79
2023-03-30T03:26:09.586Z,14.85
2023-03-30T03:28:36.535Z,14.86
2023-03-30T03:31:06.468Z,14.93
2023-03-30T03:33:33.910Z,14.95
2023-03-30T03:36:01.103Z,14.98
2023-03-30T03:38:28.959Z,15.02
2023-03-30T03:40:59.047Z,15.09
2023-03-30T03:43:26.450Z,15.14
2023-03-30T03:45:53.723Z,15.15
2023-03-30T03:48:24.733Z,15.17
2023-03-30T03:50:53.396Z,15.21
2023-03-30T03:53:21.508Z,15.25
2023-03-30T03:55:48.474Z,15.29
2023-03-30T03:58:16.605Z,15.34
2023-03-30T04:00:43.979Z,15.40
2023-03-30T04:03:12.222Z,15.42
2023-03-30T04:05:41.808Z,15.45
2023-03-30T04:08:10.703Z,15.47
2023-03-30T04:10:38.849Z,15.50
2023-03-30T04:13:06.378Z,15.54
2023-03-30T04:15:34.042Z,15.58
2023-03-30T04:18:01.671Z,15.64
2023-03-30T04:20:29.953Z,15.73
2023-03-30T04:23:01.590Z,15.83
2023-03-30T04:25:29.267Z,15.95
2023-03-30T04:27:57.091Z,16.02
2023-03-30T04:30:24.546Z,16.07
2023-03-30T04:33:02.612Z,16.10
2023-03-30T04:35:31.283Z,16.11
2023-03-30T04:38:01.882Z,16.14
2023-03-30T04:40:29.331Z,16.15
2023-03-30T04:43:02.016Z,16.16
2023-03-30T04:45:29.561Z,16.20
2023-03-30T04:47:56.897Z,16.23
2023-03-30T04:50:23.842Z,16.27
2023-03-30T04:52:50.960Z,16.32
2023-03-30T04:55:19.741Z,16.33
2023-03-30T04:57:46.751Z,16.37
2023-03-30T05:00:15.089Z,16.41
2023-03-30T05:02:42.129Z,16.44
2023-03-30T05:05:09.553Z,16.44
2023-03-30T05:07:36.478Z,16.44
2023-03-30T05:10:03.871Z,16.44
2023-03-30T05:12:32.146Z,16.45
2023-03-30T05:14:59.124Z,16.48
2023-03-30T05:17:26.390Z,16.52
2023-03-30T05:19:54.557Z,16.56
2023-03-30T05:22:21.759Z,16.62
2023-03-30T05:24:48.638Z,16.68
2023-03-30T05:27:15.732Z,16.75
2023-03-30T05:29:44.344Z,16.79
2023-03-30T05:32:11.498Z,16.84
2023-03-30T05:34:38.389Z,16.86
2023-03-30T05:37:05.313Z,16.86
2023-03-30T05:39:32.569Z,16.87
2023-03-30T05:41:59.558Z,16.86
2023-03-30T05:44:26.468Z,16.88
2023-03-30T05:46:54.681Z,16.89
2023-03-30T05:49:21.563Z,16.90
2023-03-30T05:51:48.507Z,16.92
2023-03-30T05:54:15.520Z,16.96
2023-03-30T05:56:42.718Z,17.04
2023-03-30T05:59:10.651Z,17.07
2023-03-30T06:01:38.335Z,17.12
2023-03-30T06:04:07.836Z,17.14
2023-03-30T06:06:34.781Z,17.15
2023-03-30T06:09:02.812Z,17.20
2023-03-30T06:11:29.939Z,17.20
2023-03-30T06:13:56.891Z,17.23
2023-03-30T06:16:24.314Z,17.26
2023-03-30T06:18:52.083Z,17.32
2023-03-30T06:21:20.703Z,17.38
2023-03-30T06:23:48.976Z,17.41
2023-03-30T06:26:15.884Z,17.44
2023-03-30T06:28:43.419Z,17.53
2023-03-30T06:31:12.023Z,17.66
2023-03-30T06:33:41.533Z,17.72
2023-03-30T06:36:12.058Z,17.80
2023-03-30T06:38:41.175Z,17.89
2023-03-30T06:41:10.051Z,17.96
2023-03-30T06:43:37.622Z,18.06
2023-03-30T06:46:05.964Z,18.13
2023-03-30T06:48:33.056Z,18.27
2023-03-30T06:51:00.136Z,18.41
2023-03-30T06:53:28.202Z,18.56
2023-03-30T06:55:58.623Z,18.66
2023-03-30T06:58:27.501Z,18.75
2023-03-30T07:00:55.154Z,18.86
2023-03-30T07:03:22.690Z,18.93
2023-03-30T07:05:50.799Z,18.99
2023-03-30T07:08:18.710Z,19.02
2023-03-30T07:10:47.772Z,19.06
2023-03-30T07:13:17.527Z,19.09
2023-03-30T07:15:46.593Z,19.05
2023-03-30T07:18:14.789Z,19.04
2023-03-30T07:20:41.781Z,19.00
2023-03-30T07:23:10.419Z,19.02
2023-03-30T07:25:37.372Z,19.04
2023-03-30T07:28:06.246Z,19.08
2023-03-30T07:30:35.764Z,19.08
2023-03-30T07:33:03.589Z,19.06
2023-03-30T07:35:30.789Z,19.01
2023-03-30T07:38:03.465Z,19.08
2023-03-30T07:40:31.192Z,19.11
2023-03-30T07:42:58.914Z,19.12
2023-03-30T07:45:27.262Z,19.18
2023-03-30T07:47:55.875Z,19.44
2023-03-30T07:50:25.355Z,19.82
2023-03-30T07:52:52.720Z,20.39
2023-03-30T07:55:19.676Z,21.32
2023-03-30T07:57:50.027Z,22.48
2023-03-30T08:00:18.804Z,23.01
2023-03-30T08:02:45.950Z,23.09
2023-03-30T08:05:15.531Z,23.08
2023-03-30T08:07:43.059Z,23.18
2023-03-30T08:10:11.417Z,23.28
2023-03-30T08:12:38.342Z,23.38
2023-03-30T08:15:06.803Z,23.71
2023-03-30T08:17:33.909Z,23.91
2023-03-30T08:20:01.719Z,23.81
2023-03-30T08:22:30.289Z,23.52
2023-03-30T08:24:57.390Z,23.25
2023-03-30T08:27:24.425Z,23.01
2023-03-30T08:29:54.249Z,22.68
2023-03-30T08:32:21.366Z,22.36
2023-03-30T08:34:48.349Z,22.16
2023-03-30T08:37:15.338Z,22.08
2023-03-30T08:39:43.630Z,21.93
2023-03-30T08:42:39.379Z,21.72
2023-03-30T08:45:11.830Z,21.82
2023-03-30T08:47:43.994Z,21.83
2023-03-30T08:50:17.086Z,21.79
2023-03-30T08:52:44.240Z,21.70
2023-03-30T08:55:24.319Z,21.63
2023-03-30T08:57:57.441Z,21.57
2023-03-30T09:00:37.675Z,21.67
2023-03-30T09:03:17.630Z,22.50
2023-03-30T09:05:55.002Z,23.79
2023-03-30T09:08:29.110Z,25.06
2023-03-30T09:11:01.713Z,25.92
2023-03-30T09:13:33.706Z,26.18
2023-03-30T09:16:14.820Z,26.86
2023-03-30T09:18:44.968Z,27.32
2023-03-30T09:21:13.964Z,28.05
2023-03-30T09:23:41.332Z,28.56
2023-03-30T09:26:23.701Z,29.09
2023-03-30T09:29:01.017Z,29.77
2023-03-30T09:31:39.875Z,30.19
2023-03-30T09:34:25.593Z,30.83
2023-03-30T09:36:58.008Z,31.11
2023-03-30T09:39:27.562Z,31.34
2023-03-30T09:42:18.583Z,31.41
2023-03-30T09:44:51.763Z,31.10
2023-03-30T09:47:35.421Z,30.80
2023-03-30T09:50:07.883Z,30.71
2023-03-30T09:52:39.982Z,30.37
2023-03-30T09:55:30.251Z,29.51
2023-03-30T09:58:14.009Z,28.64
2023-03-30T10:00:41.136Z,27.78
2023-03-30T10:03:19.728Z,27.35
2023-03-30T10:06:03.806Z,27.52
2023-03-30T10:08:39.491Z,27.91
2023-03-30T10:11:10.563Z,28.56
2023-03-30T10:13:43.247Z,29.17
2023-03-30T10:16:24.664Z,29.83
2023-03-30T10:18:55.566Z,30.28
2023-03-30T10:21:27.225Z,30.07
2023-03-30T10:24:04.549Z,29.71
2023-03-30T10:26:32.008Z,29.65
2023-03-30T10:29:05.723Z,29.73
2023-03-30T10:31:36.961Z,29.62
2023-03-30T10:34:14.794Z,28.74
2023-03-30T10:36:42.149Z,27.77
2023-03-30T10:39:17.763Z,26.83
2023-03-30T10:41:48.732Z,26.01
2023-03-30T10:44:23.649Z,25.19
2023-03-30T10:47:03.265Z,24.48
2023-03-30T10:49:47.183Z,23.74
2023-03-30T10:52:26.425Z,23.10
2023-03-30T10:55:06.467Z,22.56
2023-03-30T10:57:50.876Z,22.18
2023-03-30T11:00:36.480Z,21.97
2023-03-30T11:03:12.750Z,21.84
2023-03-30T11:05:45.983Z,21.80
2023-03-30T11:08:21.009Z,21.94
2023-03-30T11:10:52.969Z,22.39
2023-03-30T11:13:26.074Z,23.34
2023-03-30T11:15:59.940Z,23.65
2023-03-30T11:18:36.289Z,23.74
2023-03-30T11:21:10.933Z,23.80
2023-03-30T11:23:49.302Z,23.83
2023-03-30T11:26:24.585Z,24.21
2023-03-30T11:29:02.737Z,24.96
2023-03-30T11:32:05.563Z,25.12
2023-03-30T11:34:48.165Z,25.10
2023-03-30T11:37:27.263Z,24.67
2023-03-30T11:40:08.363Z,24.08
2023-03-30T11:42:37.510Z,23.62
2023-03-30T11:45:18.482Z,23.16
2023-03-30T11:48:20.036Z,22.83
2023-03-30T11:51:09.064Z,22.63
2023-03-30T11:53:51.971Z,22.44
2023-03-30T11:56:34.582Z,22.37
2023-03-30T11:59:12.410Z,22.35
2023-03-30T12:02:07.020Z,22.19
2023-03-30T12:04:46.559Z,22.12
2023-03-30T12:07:30.560Z,21.99
2023-03-30T12:10:16.482Z,21.79
2023-03-30T12:12:47.154Z,21.61
2023-03-30T12:15:34.719Z,21.68
2023-03-30T12:18:19.501Z,22.15
2023-03-30T12:20:55.562Z,22.92
2023-03-30T12:23:40.639Z,23.48
2023-03-30T12:26:26.893Z,23.59
2023-03-30T12:32:03.611Z,22.83
2023-03-30T12:34:34.403Z,22.49
2023-03-30T12:37:09.921Z,22.21
2023-03-30T12:39:49.240Z,21.94
2023-03-30T12:42:26.961Z,21.67
2023-03-30T12:45:23.784Z,21.42
2023-03-30T12:48:16.788Z,21.58
2023-03-30T12:51:04.516Z,22.06
2023-03-30T12:54:03.370Z,22.44
2023-03-30T12:56:38.008Z,23.21
2023-03-30T12:59:54.773Z,23.84
2023-03-30T13:02:55.114Z,24.52
2023-03-30T13:05:30.340Z,25.21
2023-03-30T13:08:04.482Z,25.64
2023-03-30T13:10:40.072Z,25.85
2023-03-30T13:13:21.961Z,25.99
2023-03-30T13:15:52.872Z,25.83
2023-03-30T13:18:41.387Z,25.54
2023-03-30T13:21:22.865Z,25.29
2023-03-30T13:24:28.359Z,24.85
2023-03-30T13:27:25.667Z,24.53
2023-03-30T13:29:56.749Z,24.29
2023-03-30T13:33:01.637Z,23.88
2023-03-30T13:35:38.915Z,23.70
2023-03-30T13:38:45.756Z,23.45
2023-03-30T13:41:38.274Z,23.23
2023-03-30T13:44:27.760Z,23.10
2023-03-30T13:47:12.384Z,23.25
2023-03-30T13:49:55.158Z,24.26
2023-03-30T13:52:30.629Z,25.35
2023-03-30T13:54:58.543Z,25.93
2023-03-30T13:57:33.804Z,26.22
2023-03-30T14:00:21.245Z,26.20
2023-03-30T14:02:49.349Z,25.98
2023-03-30T14:05:21.682Z,25.87
2023-03-30T14:07:48.997Z,25.49
2023-03-30T14:10:20.387Z,25.07
2023-03-30T14:12:53.704Z,24.65
2023-03-30T14:15:33.919Z,24.30
2023-03-30T14:18:04.659Z,23.98
2023-03-30T14:20:48.319Z,23.64
2023-03-30T14:23:22.639Z,23.27
2023-03-30T14:25:54.344Z,22.97
2023-03-30T14:28:22.354Z,22.76
2023-03-30T14:30:53.711Z,22.59
2023-03-30T14:33:24.094Z,22.40
2023-03-30T14:35:56.401Z,22.22
2023-03-30T14:38:27.300Z,22.17
2023-03-30T14:40:55.713Z,22.07
2023-03-30T14:43:27.023Z,22.02
2023-03-30T14:45:59.574Z,22.01
2023-03-30T14:48:32.789Z,22.13
2023-03-30T14:51:02.625Z,22.16
2023-03-30T14:53:30.961Z,22.09
2023-03-30T14:56:01.341Z,21.94
2023-03-30T14:58:32.554Z,21.80
2023-03-30T15:01:09.627Z,21.72
2023-03-30T15:03:38.336Z,22.04
2023-03-30T15:06:07.897Z,22.60
2023-03-30T15:08:39.310Z,23.09
2023-03-30T15:11:12.675Z,23.46
2023-03-30T15:13:46.570Z,23.74
2023-03-30T15:16:20.858Z,23.72
2023-03-30T15:18:49.850Z,23.90
2023-03-30T15:21:19.501Z,24.35
2023-03-30T15:23:49.949Z,24.62
2023-03-30T15:26:18.456Z,24.76
2023-03-30T15:28:51.098Z,24.69
2023-03-30T15:31:20.931Z,24.43
2023-03-30T15:33:53.198Z,24.11
2023-03-30T15:36:23.458Z,23.78
2023-03-30T15:38:53.199Z,23.36
2023-03-30T15:41:24.609Z,23.08
2023-03-30T15:43:58.147Z,23.17
2023-03-30T15:46:30.016Z,23.16
2023-03-30T15:48:58.308Z,23.08
2023-03-30T15:51:32.987Z,22.85
2023-03-30T15:54:12.924Z,22.86
2023-03-30T15:56:48.202Z,22.79
2023-03-30T15:59:19.566Z,22.62
2023-03-30T16:01:54.778Z,22.40
2023-03-30T16:04:24.411Z,22.21
2023-03-30T16:06:52.684Z,22.07
2023-03-30T16:09:19.773Z,21.88
2023-03-30T16:11:47.190Z,21.77
2023-03-30T16:14:20.059Z,21.64
2023-03-30T16:16:48.945Z,21.49
2023-03-30T16:19:20.358Z,21.39
2023-03-30T16:21:47.548Z,21.30
2023-03-30T16:24:14.798Z,21.26
2023-03-30T16:26:42.233Z,21.24
2023-03-30T16:29:19.980Z,21.22
2023-03-30T16:31:47.088Z,21.21
2023-03-30T16:34:15.590Z,21.16
2023-03-30T16:36:42.722Z,21.11
2023-03-30T16:39:17.885Z,21.06
2023-03-30T16:41:45.584Z,21.02
2023-03-30T16:44:12.551Z,20.95
2023-03-30T16:46:42.035Z,20.84
2023-03-30T16:49:14.098Z,20.76
2023-03-30T16:51:43.561Z,20.69
2023-03-30T16:54:19.783Z,20.68
2023-03-30T16:56:54.640Z,20.62
2023-03-30T16:59:24.234Z,20.56
2023-03-30T17:01:51.794Z,20.48
2023-03-30T17:04:19.514Z,20.40
2023-03-30T17:06:49.096Z,20.36
2023-03-30T17:09:19.232Z,20.30
2023-03-30T17:11:48.488Z,20.23
2023-03-30T17:14:16.562Z,20.16
2023-03-30T17:16:44.002Z,20.07
2023-03-30T17:19:13.650Z,19.99
2023-03-30T17:21:43.350Z,19.90
2023-03-30T17:24:12.563Z,19.84
2023-03-30T17:26:40.254Z,19.75
2023-03-30T17:29:07.292Z,19.67
2023-03-30T17:31:34.442Z,19.59
2023-03-30T17:34:01.516Z,19.53
2023-03-30T17:36:30.942Z,19.45
2023-03-30T17:38:59.477Z,19.41
2023-03-30T17:41:27.944Z,19.37
2023-03-30T17:43:55.080Z,19.32
2023-03-30T17:46:22.138Z,19.28
2023-03-30T17:48:51.438Z,19.26
2023-03-30T17:51:18.702Z,19.22
2023-03-30T17:53:46.035Z,19.21
2023-03-30T17:56:13.577Z,19.20
2023-03-30T17:58:41.915Z,19.17
2023-03-30T18:01:12.184Z,19.15
2023-03-30T18:03:39.731Z,19.12
2023-03-30T18:06:07.966Z,19.11
2023-03-30T18:08:35.993Z,19.08
2023-03-30T18:11:04.630Z,19.05
2023-03-30T18:13:32.215Z,19.00
2023-03-30T18:16:02.887Z,18.99
2023-03-30T18:18:31.396Z,19.02
2023-03-30T18:21:02.655Z,19.04
2023-03-30T18:23:31.487Z,19.00
2023-03-30T18:25:58.472Z,18.96
2023-03-30T18:28:27.430Z,18.96
2023-03-30T18:31:00.672Z,18.93
2023-03-30T18:33:29.222Z,18.91
2023-03-30T18:35:56.931Z,18.76
2023-03-30T18:38:25.387Z,18.80
2023-03-30T18:40:57.383Z,18.83
2023-03-30T18:43:26.163Z,18.86
2023-03-30T18:45:54.332Z,18.89
2023-03-30T18:48:21.791Z,18.87
2023-03-30T18:50:52.169Z,18.85
2023-03-30T18:53:21.569Z,18.82
2023-03-30T18:55:51.377Z,18.79
2023-03-30T18:58:21.261Z,18.77
2023-03-30T19:00:49.740Z,18.74
2023-03-30T19:03:17.664Z,18.72
2023-03-30T19:05:45.948Z,18.72
2023-03-30T19:08:17.807Z,18.74
2023-03-30T19:10:49.261Z,18.71
2023-03-30T19:13:18.566Z,18.74
2023-03-30T19:15:47.590Z,18.74
2023-03-30T19:18:15.661Z,18.72
2023-03-30T19:20:42.753Z,18.69
2023-03-30T19:23:13.228Z,18.67
2023-03-30T19:25:42.711Z,18.63
2023-03-30T19:28:10.203Z,18.59
2023-03-30T19:30:39.624Z,18.58
2023-03-30T19:33:10.993Z,18.62
2023-03-30T19:35:40.808Z,18.62
2023-03-30T19:38:08.097Z,18.63
2023-03-30T19:40:36.506Z,18.64
2023-03-30T19:43:05.179Z,18.63
2023-03-30T19:45:32.619Z,18.63
2023-03-30T19:47:59.901Z,18.64
2023-03-30T19:50:29.491Z,18.62
2023-03-30T19:52:57.965Z,18.60
2023-03-30T19:55:25.668Z,18.54
2023-03-30T19:57:52.710Z,18.46
2023-03-30T20:00:21.400Z,18.38
2023-03-30T20:02:51.472Z,18.28
2023-03-30T20:05:21.720Z,18.18
2023-03-30T20:07:50.459Z,18.12
2023-03-30T20:10:21.788Z,18.06
2023-03-30T20:12:50.321Z,18.05
2023-03-30T20:15:18.495Z,18.04
2023-03-30T20:17:46.951Z,18.06
2023-03-30T20:20:16.957Z,18.09
2023-03-30T20:22:44.828Z,18.08
2023-03-30T20:25:14.228Z,18.07
2023-03-30T20:27:41.798Z,18.03
2023-03-30T20:30:11.557Z,17.96
2023-03-30T20:32:39.657Z,17.94
2023-03-30T20:35:09.253Z,17.93
2023-03-30T20:37:36.116Z,17.88
2023-03-30T20:40:09.618Z,17.83
2023-03-30T20:42:39.753Z,17.82
2023-03-30T20:45:08.781Z,17.86
2023-03-30T20:47:35.714Z,17.91
2023-03-30T20:50:06.283Z,17.92
2023-03-30T20:52:34.710Z,17.95
2023-03-30T20:55:01.730Z,17.97
2023-03-30T20:57:28.650Z,17.95
2023-03-30T20:59:55.852Z,17.97
2023-03-30T21:02:22.750Z,18.00
2023-03-30T21:04:50.279Z,18.04
2023-03-30T21:07:17.827Z,18.04
2023-03-30T21:09:47.143Z,18.01
2023-03-30T21:12:14.063Z,17.96
2023-03-30T21:14:41.120Z,17.92
2023-03-30T21:17:08.413Z,17.87
2023-03-30T21:19:36.649Z,17.80
2023-03-30T21:22:03.722Z,17.79
2023-03-30T21:24:31.082Z,17.76
2023-03-30T21:26:59.476Z,17.72
2023-03-30T21:29:26.365Z,17.58
2023-03-30T21:31:53.278Z,17.49
2023-03-30T21:34:22.062Z,17.48
2023-03-30T21:36:49.138Z,17.49
2023-03-30T21:39:16.213Z,17.50
2023-03-30T21:41:43.600Z,17.51
2023-03-30T21:44:11.914Z,17.52
2023-03-30T21:46:38.910Z,17.51
2023-03-30T21:49:05.819Z,17.48
2023-03-30T21:51:32.761Z,17.45
2023-03-30T21:53:59.719Z,17.45
2023-03-30T21:56:29.577Z,17.45
2023-03-30T21:58:56.956Z,17.45
2023-03-30T22:01:25.600Z,17.49
2023-03-30T22:03:53.549Z,17.55
2023-03-30T22:06:22.067Z,17.62
2023-03-30T22:08:49.517Z,17.63
2023-03-30T22:11:19.753Z,17.68
2023-03-30T22:13:48.324Z,17.63
2023-03-30T22:16:18.655Z,17.65
2023-03-30T22:18:47.346Z,17.54
2023-03-30T22:21:17.580Z,17.44
2023-03-30T22:23:45.171Z,17.47
2023-03-30T22:26:13.764Z,17.45
2023-03-30T22:28:41.109Z,17.50
2023-03-30T22:31:10.223Z,17.56
2023-03-30T22:33:37.486Z,17.62
2023-03-30T22:36:14.941Z,17.63
2023-03-30T22:38:42.414Z,17.67
2023-03-30T22:41:10.206Z,17.66
2023-03-30T22:43:37.729Z,17.65
2023-03-30T22:46:06.489Z,17.64
2023-03-30T22:48:35.493Z,17.58
2023-03-30T22:51:04.802Z,17.53
2023-03-30T22:53:32.432Z,17.48
2023-03-30T22:55:59.864Z,17.41
2023-03-30T22:58:27.844Z,17.36
2023-03-30T23:01:00.925Z,17.30
2023-03-30T23:03:28.068Z,17.30
2023-03-30T23:05:55.802Z,17.31
2023-03-30T23:08:24.315Z,17.30
2023-03-30T23:10:53.777Z,17.30
2023-03-30T23:13:20.734Z,17.35
2023-03-30T23:15:48.551Z,17.38
2023-03-30T23:18:15.903Z,17.41
2023-03-30T23:20:46.401Z,17.44
2023-03-30T23:23:14.062Z,17.47
2023-03-30T23:25:51.376Z,17.46
2023-03-30T23:28:19.030Z,17.50
2023-03-30T23:30:46.387Z,17.51
2023-03-30T23:33:13.930Z,17.51
2023-03-30T23:35:49.038Z,17.53
2023-03-30T23:38:16.954Z,17.56
2023-03-30T23:40:45.347Z,17.48
2023-03-30T23:43:12.256Z,17.44
2023-03-30T23:45:39.291Z,17.43
2023-03-30T23:48:07.177Z,17.40
2023-03-30T23:50:36.031Z,17.31
2023-03-30T23:53:02.934Z,17.30
2023-03-30T23:55:29.851Z,17.20
2023-03-30T23:57:58.065Z,17.05
